ASE weather

Aspen-Pitkin Co/Sardy Field
Aspen, Colorado, United States

Public forecast

Using degrees Fahrenheit for public forecast. Weather courtesy of forecast.io.

Current aviation weather report (METAR) for Aspen-Pitkin Co/Sardy Field

Retrieved 2019/11/14 21:53 UTC (1 hour ago):

KASE 142153Z 31005KT 10SM CLR 12/M14 A3027 RMK AO2 SLP206 T01171139

Aviation forecast (TAF) for Aspen-Pitkin Co/Sardy Field

Retrieved 2019/11/14 18:42 UTC (4 hours ago):

TAF KASE 141740Z 1418/1518 VRB03KT P6SM SKC FM142000 32008KT P6SM SKC FM150000 21005KT P6SM FEW120 SCT250 FM151500 VRB04KT P6SM FEW120 SCT200